sensor_id;sensor_type;location;lat;lon;timestamp;pressure;altitude;pressure_sealevel;temperature;humidity
46944;BME280;32678;43.852;25.952;2023-03-01T00:00:23;102235.97;;;6.69;87.27
46944;BME280;32678;43.852;25.952;2023-03-01T00:05:19;102241.06;;;6.52;88.85
46944;BME280;32678;43.852;25.952;2023-03-01T00:10:16;102245.41;;;6.57;89.08
46944;BME280;32678;43.852;25.952;2023-03-01T00:15:13;102241.94;;;6.55;88.89
46944;BME280;32678;43.852;25.952;2023-03-01T00:20:11;102234.00;;;6.38;90.14
46944;BME280;32678;43.852;25.952;2023-03-01T00:25:07;102222.72;;;6.39;90.25
46944;BME280;32678;43.852;25.952;2023-03-01T00:30:05;102227.97;;;6.45;90.66
46944;BME280;32678;43.852;25.952;2023-03-01T00:35:02;102225.28;;;6.36;90.39
46944;BME280;32678;43.852;25.952;2023-03-01T00:39:59;102221.88;;;6.43;90.86
46944;BME280;32678;43.852;25.952;2023-03-01T00:44:56;102211.47;;;6.47;90.53
46944;BME280;32678;43.852;25.952;2023-03-01T00:49:53;102214.22;;;6.64;90.10
46944;BME280;32678;43.852;25.952;2023-03-01T00:54:51;102207.19;;;6.54;90.33
46944;BME280;32678;43.852;25.952;2023-03-01T00:59:52;102206.03;;;6.14;91.93
46944;BME280;32678;43.852;25.952;2023-03-01T01:04:49;102199.91;;;6.09;93.60
46944;BME280;32678;43.852;25.952;2023-03-01T01:09:46;102199.03;;;6.05;94.18
46944;BME280;32678;43.852;25.952;2023-03-01T01:14:43;102189.56;;;6.18;93.33
46944;BME280;32678;43.852;25.952;2023-03-01T01:19:40;102171.44;;;6.36;92.00
46944;BME280;32678;43.852;25.952;2023-03-01T01:24:37;102172.22;;;6.22;91.35
46944;BME280;32678;43.852;25.952;2023-03-01T01:29:34;102165.94;;;5.97;93.35
46944;BME280;32678;43.852;25.952;2023-03-01T01:34:30;102159.00;;;5.94;94.00
46944;BME280;32678;43.852;25.952;2023-03-01T01:39:28;102150.47;;;6.17;92.96
46944;BME280;32678;43.852;25.952;2023-03-01T01:44:25;102141.63;;;5.90;93.83
46944;BME280;32678;43.852;25.952;2023-03-01T01:49:24;102145.13;;;5.98;93.69
46944;BME280;32678;43.852;25.952;2023-03-01T01:54:23;102141.84;;;6.22;92.84
46944;BME280;32678;43.852;25.952;2023-03-01T01:59:22;102129.41;;;5.86;93.44
46944;BME280;32678;43.852;25.952;2023-03-01T02:04:20;102130.22;;;5.81;94.42
46944;BME280;32678;43.852;25.952;2023-03-01T02:09:17;102104.22;;;5.85;93.39
46944;BME280;32678;43.852;25.952;2023-03-01T02:14:15;102121.72;;;6.01;93.35
46944;BME280;32678;43.852;25.952;2023-03-01T02:19:15;102111.25;;;5.92;94.18
46944;BME280;32678;43.852;25.952;2023-03-01T02:24:19;102109.47;;;5.87;94.11
46944;BME280;32678;43.852;25.952;2023-03-01T02:29:18;102113.16;;;6.15;93.50
46944;BME280;32678;43.852;25.952;2023-03-01T02:34:16;102111.44;;;6.15;93.07
46944;BME280;32678;43.852;25.952;2023-03-01T02:39:14;102105.88;;;5.74;94.67
46944;BME280;32678;43.852;25.952;2023-03-01T02:44:15;102108.66;;;5.91;93.40
46944;BME280;32678;43.852;25.952;2023-03-01T02:49:19;102121.53;;;5.80;94.05
46944;BME280;32678;43.852;25.952;2023-03-01T02:54:18;102113.91;;;6.00;93.69
46944;BME280;32678;43.852;25.952;2023-03-01T02:59:19;102116.47;;;5.91;93.70
46944;BME280;32678;43.852;25.952;2023-03-01T03:04:18;102121.66;;;5.89;93.24
46944;BME280;32678;43.852;25.952;2023-03-01T03:09:18;102130.56;;;6.26;91.86
46944;BME280;32678;43.852;25.952;2023-03-01T03:14:15;102116.44;;;5.92;93.25
46944;BME280;32678;43.852;25.952;2023-03-01T03:19:15;102126.78;;;5.85;92.90
46944;BME280;32678;43.852;25.952;2023-03-01T03:24:12;102116.25;;;5.73;95.20
46944;BME280;32678;43.852;25.952;2023-03-01T03:29:12;102129.41;;;5.86;94.06
46944;BME280;32678;43.852;25.952;2023-03-01T03:34:16;102131.28;;;6.02;94.30
46944;BME280;32678;43.852;25.952;2023-03-01T03:39:23;102121.44;;;5.73;95.20
46944;BME280;32678;43.852;25.952;2023-03-01T03:44:21;102116.53;;;6.03;93.83
46944;BME280;32678;43.852;25.952;2023-03-01T03:49:24;102118.03;;;5.75;94.70
46944;BME280;32678;43.852;25.952;2023-03-01T03:54:39;102118.13;;;5.86;95.47
46944;BME280;32678;43.852;25.952;2023-03-01T03:59:45;102116.50;;;5.98;94.77
46944;BME280;32678;43.852;25.952;2023-03-01T04:04:42;102120.78;;;5.90;94.51
46944;BME280;32678;43.852;25.952;2023-03-01T04:09:38;102124.38;;;6.07;93.90
46944;BME280;32678;43.852;25.952;2023-03-01T04:14:35;102124.56;;;6.36;92.41
46944;BME280;32678;43.852;25.952;2023-03-01T04:19:32;102125.34;;;6.22;91.96
46944;BME280;32678;43.852;25.952;2023-03-01T04:24:32;102128.88;;;6.30;92.17
46944;BME280;32678;43.852;25.952;2023-03-01T04:29:29;102127.19;;;6.41;91.19
46944;BME280;32678;43.852;25.952;2023-03-01T04:34:44;102134.91;;;6.20;91.58
46944;BME280;32678;43.852;25.952;2023-03-01T04:39:41;102135.94;;;6.47;91.11
46944;BME280;32678;43.852;25.952;2023-03-01T04:44:41;102133.44;;;6.64;90.13
46944;BME280;32678;43.852;25.952;2023-03-01T04:49:39;102126.38;;;6.48;90.42
46944;BME280;32678;43.852;25.952;2023-03-01T04:54:37;102125.31;;;6.17;91.63
46944;BME280;32678;43.852;25.952;2023-03-01T04:59:33;102128.63;;;5.98;93.57
46944;BME280;32678;43.852;25.952;2023-03-01T05:04:32;102130.44;;;6.05;92.88
46944;BME280;32678;43.852;25.952;2023-03-01T05:09:29;102130.41;;;6.00;93.36
46944;BME280;32678;43.852;25.952;2023-03-01T05:14:27;102132.16;;;6.06;92.66
46944;BME280;32678;43.852;25.952;2023-03-01T05:19:24;102138.19;;;5.99;93.61
46944;BME280;32678;43.852;25.952;2023-03-01T05:24:23;102133.00;;;5.96;93.64
46944;BME280;32678;43.852;25.952;2023-03-01T05:29:20;102138.28;;;6.09;93.85
46944;BME280;32678;43.852;25.952;2023-03-01T05:34:23;102135.50;;;5.87;94.10
46944;BME280;32678;43.852;25.952;2023-03-01T05:39:22;102139.97;;;6.06;93.78
46944;BME280;32678;43.852;25.952;2023-03-01T05:44:19;102132.22;;;6.12;93.01
46944;BME280;32678;43.852;25.952;2023-03-01T05:49:16;102127.97;;;6.20;92.51
46944;BME280;32678;43.852;25.952;2023-03-01T05:54:13;102134.00;;;6.21;92.35
46944;BME280;32678;43.852;25.952;2023-03-01T05:59:10;102112.25;;;6.11;92.66
46944;BME280;32678;43.852;25.952;2023-03-01T06:04:07;102136.59;;;6.21;92.32
46944;BME280;32678;43.852;25.952;2023-03-01T06:09:04;102131.31;;;6.07;92.93
46944;BME280;32678;43.852;25.952;2023-03-01T06:14:01;102141.63;;;5.93;94.47
46944;BME280;32678;43.852;25.952;2023-03-01T06:18:58;102138.38;;;6.22;93.18
46944;BME280;32678;43.852;25.952;2023-03-01T06:23:55;102139.03;;;5.93;93.46
46944;BME280;32678;43.852;25.952;2023-03-01T06:28:52;102138.09;;;5.87;95.31
46944;BME280;32678;43.852;25.952;2023-03-01T06:33:52;102145.03;;;5.86;95.50
46944;BME280;32678;43.852;25.952;2023-03-01T06:38:49;102138.75;;;5.66;96.32
46944;BME280;32678;43.852;25.952;2023-03-01T06:43:50;102134.75;;;6.01;95.35
46944;BME280;32678;43.852;25.952;2023-03-01T06:49:00;102133.72;;;5.84;95.80
46944;BME280;32678;43.852;25.952;2023-03-01T06:53:57;102140.66;;;5.84;96.13
46944;BME280;32678;43.852;25.952;2023-03-01T06:58:57;102139.63;;;5.68;96.27
46944;BME280;32678;43.852;25.952;2023-03-01T07:03:53;102133.88;;;5.99;95.80
46944;BME280;32678;43.852;25.952;2023-03-01T07:08:54;102141.63;;;5.96;95.90
46944;BME280;32678;43.852;25.952;2023-03-01T07:13:53;102137.38;;;6.06;95.38
46944;BME280;32678;43.852;25.952;2023-03-01T07:18:50;102135.50;;;5.87;95.79
46944;BME280;32678;43.852;25.952;2023-03-01T07:23:51;102146.09;;;6.13;94.73
46944;BME280;32678;43.852;25.952;2023-03-01T07:28:52;102145.94;;;5.90;95.89
46944;BME280;32678;43.852;25.952;2023-03-01T07:33:51;102138.19;;;5.99;95.87
46944;BME280;32678;43.852;25.952;2023-03-01T07:38:49;102135.78;;;6.23;94.14
46944;BME280;32678;43.852;25.952;2023-03-01T08:48:02;102143.63;;;6.28;93.13
46944;BME280;32678;43.852;25.952;2023-03-01T08:52:35;102147.22;;;6.51;92.62
46944;BME280;32678;43.852;25.952;2023-03-01T09:34:53;102121.84;;;6.21;95.34
46944;BME280;32678;43.852;25.952;2023-03-01T09:46:56;102122.66;;;6.09;96.95
46944;BME280;32678;43.852;25.952;2023-03-01T10:05:25;102110.94;;;6.92;92.22
46944;BME280;32678;43.852;25.952;2023-03-01T10:11:22;102109.16;;;6.85;92.54
46944;BME280;32678;43.852;25.952;2023-03-01T10:16:35;102105.69;;;6.81;92.76
46944;BME280;32678;43.852;25.952;2023-03-01T10:21:37;102110.94;;;6.87;93.03
46944;BME280;32678;43.852;25.952;2023-03-01T10:26:44;102097.94;;;7.03;91.98
46944;BME280;32678;43.852;25.952;2023-03-01T10:31:44;102092.66;;;6.78;92.34
46944;BME280;32678;43.852;25.952;2023-03-01T10:36:44;102084.03;;;7.05;90.80
46944;BME280;32678;43.852;25.952;2023-03-01T10:41:53;102081.44;;;7.10;91.51
46944;BME280;32678;43.852;25.952;2023-03-01T10:46:58;102074.53;;;7.39;88.84
46944;BME280;32678;43.852;25.952;2023-03-01T10:51:57;102074.50;;;7.10;90.71
46944;BME280;32678;43.852;25.952;2023-03-01T10:57:10;102064.97;;;7.27;89.58
46944;BME280;32678;43.852;25.952;2023-03-01T11:02:28;102040.59;;;7.16;89.96
46944;BME280;32678;43.852;25.952;2023-03-01T11:07:26;102049.31;;;7.35;89.83
46944;BME280;32678;43.852;25.952;2023-03-01T11:12:23;102043.25;;;7.33;88.30
46944;BME280;32678;43.852;25.952;2023-03-01T11:17:21;102038.03;;;7.62;87.74
46944;BME280;32678;43.852;25.952;2023-03-01T11:22:19;102034.53;;;7.60;87.07
46944;BME280;32678;43.852;25.952;2023-03-01T11:27:19;102023.22;;;7.53;86.62
46944;BME280;32678;43.852;25.952;2023-03-01T11:32:18;102022.34;;;7.53;86.86
46944;BME280;32678;43.852;25.952;2023-03-01T11:37:21;102008.44;;;7.28;87.49
46944;BME280;32678;43.852;25.952;2023-03-01T11:42:24;101997.13;;;7.21;88.59
46944;BME280;32678;43.852;25.952;2023-03-01T11:47:30;101999.72;;;7.29;88.05
46944;BME280;32678;43.852;25.952;2023-03-01T11:52:33;101995.41;;;7.31;87.69
46944;BME280;32678;43.852;25.952;2023-03-01T11:57:40;101988.44;;;7.31;87.80
46944;BME280;32678;43.852;25.952;2023-03-01T12:02:47;101978.00;;;7.34;87.40
46944;BME280;32678;43.852;25.952;2023-03-01T12:07:51;101977.13;;;7.57;86.89
46944;BME280;32678;43.852;25.952;2023-03-01T12:13:08;101967.50;;;7.78;85.57
46944;BME280;32678;43.852;25.952;2023-03-01T12:23:42;101960.59;;;7.49;88.15
46944;BME280;32678;43.852;25.952;2023-03-01T12:28:48;101955.41;;;7.17;89.25
46944;BME280;32678;43.852;25.952;2023-03-01T12:33:49;101951.06;;;7.11;89.57
46944;BME280;32678;43.852;25.952;2023-03-01T12:38:56;101956.25;;;7.05;90.94
46944;BME280;32678;43.852;25.952;2023-03-01T12:44:01;101963.22;;;7.27;90.00
46944;BME280;32678;43.852;25.952;2023-03-01T12:49:04;101963.22;;;7.32;89.03
46944;BME280;32678;43.852;25.952;2023-03-01T12:54:05;101960.59;;;7.46;88.10
46944;BME280;32678;43.852;25.952;2023-03-01T13:05:18;101948.41;;;7.57;88.57
46944;BME280;32678;43.852;25.952;2023-03-01T13:10:17;101953.66;;;7.32;88.54
46944;BME280;32678;43.852;25.952;2023-03-01T13:15:33;101944.91;;;7.76;87.25
46944;BME280;32678;43.852;25.952;2023-03-01T13:20:35;101942.22;;;7.93;86.26
46944;BME280;32678;43.852;25.952;2023-03-01T13:26:03;101944.78;;;8.02;85.46
46944;BME280;32678;43.852;25.952;2023-03-01T13:31:01;101938.78;;;7.86;86.08
46944;BME280;32678;43.852;25.952;2023-03-01T13:35:59;101939.63;;;7.91;85.87
46944;BME280;32678;43.852;25.952;2023-03-01T13:40:58;101929.31;;;7.36;87.75
46944;BME280;32678;43.852;25.952;2023-03-01T13:45:55;101935.31;;;7.73;86.54
46944;BME280;32678;43.852;25.952;2023-03-01T13:50:53;101934.50;;;7.38;87.85
46944;BME280;32678;43.852;25.952;2023-03-01T13:55:52;101930.16;;;7.34;88.73
46944;BME280;32678;43.852;25.952;2023-03-01T14:00:56;101932.78;;;7.38;88.56
46944;BME280;32678;43.852;25.952;2023-03-01T14:06:04;101930.16;;;7.51;87.71
46944;BME280;32678;43.852;25.952;2023-03-01T14:16:31;101928.31;;;7.84;87.16
46944;BME280;32678;43.852;25.952;2023-03-01T14:21:31;101928.28;;;7.98;85.69
46944;BME280;32678;43.852;25.952;2023-03-01T14:26:27;101927.44;;;7.87;85.41
46944;BME280;32678;43.852;25.952;2023-03-01T14:31:35;101929.28;;;7.39;87.29
46944;BME280;32678;43.852;25.952;2023-03-01T14:36:47;101924.88;;;7.79;86.06
46944;BME280;32678;43.852;25.952;2023-03-01T14:41:44;101931.00;;;7.60;86.76
46944;BME280;32678;43.852;25.952;2023-03-01T14:46:43;101917.00;;;7.90;85.57
46944;BME280;32678;43.852;25.952;2023-03-01T14:51:41;101912.59;;;7.97;85.01
46944;BME280;32678;43.852;25.952;2023-03-01T14:56:45;101913.53;;;7.82;85.07
46944;BME280;32678;43.852;25.952;2023-03-01T15:01:43;101917.84;;;7.92;84.41
46944;BME280;32678;43.852;25.952;2023-03-01T15:06:40;101905.59;;;8.06;84.02
46944;BME280;32678;43.852;25.952;2023-03-01T15:11:37;101903.84;;;8.16;83.71
46944;BME280;32678;43.852;25.952;2023-03-01T15:16:40;101902.03;;;8.27;82.97
46944;BME280;32678;43.852;25.952;2023-03-01T15:21:40;101895.06;;;8.34;82.18
46944;BME280;32678;43.852;25.952;2023-03-01T15:26:41;101912.53;;;8.16;82.00
46944;BME280;32678;43.852;25.952;2023-03-01T15:31:39;101910.81;;;8.09;82.54
46944;BME280;32678;43.852;25.952;2023-03-01T15:36:41;101911.63;;;8.22;82.40
46944;BME280;32678;43.852;25.952;2023-03-01T15:41:46;101917.66;;;8.42;81.79
46944;BME280;32678;43.852;25.952;2023-03-01T15:46:45;101901.91;;;8.53;80.86
46944;BME280;32678;43.852;25.952;2023-03-01T15:51:43;101906.38;;;8.40;80.56
46944;BME280;32678;43.852;25.952;2023-03-01T15:56:39;101908.91;;;8.49;80.16
46944;BME280;32678;43.852;25.952;2023-03-01T16:01:36;101909.75;;;8.53;80.40
46944;BME280;32678;43.852;25.952;2023-03-01T16:06:38;101901.06;;;8.46;80.79
46944;BME280;32678;43.852;25.952;2023-03-01T16:11:38;101911.50;;;8.51;80.68
46944;BME280;32678;43.852;25.952;2023-03-01T16:16:36;101915.78;;;8.61;80.05
46944;BME280;32678;43.852;25.952;2023-03-01T16:21:33;101934.13;;;8.58;79.79
46944;BME280;32678;43.852;25.952;2023-03-01T16:26:30;101938.56;;;8.42;80.43
46944;BME280;32678;43.852;25.952;2023-03-01T16:31:29;101935.13;;;8.23;81.55
46944;BME280;32678;43.852;25.952;2023-03-01T16:36:30;101950.06;;;7.94;82.53
46944;BME280;32678;43.852;25.952;2023-03-01T16:41:27;101959.53;;;8.18;81.82
46944;BME280;32678;43.852;25.952;2023-03-01T16:46:24;101967.47;;;7.92;82.87
46944;BME280;32678;43.852;25.952;2023-03-01T16:51:22;101965.69;;;8.09;82.40
46944;BME280;32678;43.852;25.952;2023-03-01T16:56:20;101966.53;;;8.14;81.80
46944;BME280;32678;43.852;25.952;2023-03-01T17:01:18;101966.53;;;8.08;81.29
46944;BME280;32678;43.852;25.952;2023-03-01T17:06:17;101973.53;;;8.05;81.00
46944;BME280;32678;43.852;25.952;2023-03-01T17:11:17;101963.16;;;7.85;81.60
46944;BME280;32678;43.852;25.952;2023-03-01T17:16:15;101966.59;;;7.93;81.87
46944;BME280;32678;43.852;25.952;2023-03-01T17:21:12;101945.75;;;7.86;82.18
46944;BME280;32678;43.852;25.952;2023-03-01T17:26:09;101964.06;;;7.54;83.56
46944;BME280;32678;43.852;25.952;2023-03-01T17:31:07;101964.94;;;7.59;83.56
46944;BME280;32678;43.852;25.952;2023-03-01T17:36:14;101961.47;;;7.52;83.99
46944;BME280;32678;43.852;25.952;2023-03-01T17:41:11;101952.75;;;7.71;82.99
46944;BME280;32678;43.852;25.952;2023-03-01T17:46:13;101952.72;;;7.80;82.46
46944;BME280;32678;43.852;25.952;2023-03-01T17:51:14;101926.69;;;7.24;83.89
46944;BME280;32678;43.852;25.952;2023-03-01T17:56:10;101950.16;;;7.50;82.98
46944;BME280;32678;43.852;25.952;2023-03-01T18:01:08;101948.44;;;7.37;83.56
46944;BME280;32678;43.852;25.952;2023-03-01T18:06:11;101948.38;;;7.67;82.03
46944;BME280;32678;43.852;25.952;2023-03-01T18:11:08;101948.41;;;7.49;83.00
46944;BME280;32678;43.852;25.952;2023-03-01T18:16:05;101942.34;;;7.44;82.45
46944;BME280;32678;43.852;25.952;2023-03-01T18:21:03;101951.03;;;7.55;82.31
46944;BME280;32678;43.852;25.952;2023-03-01T18:26:01;101946.69;;;7.25;83.21
46944;BME280;32678;43.852;25.952;2023-03-01T18:30:58;101943.22;;;7.31;82.64
46944;BME280;32678;43.852;25.952;2023-03-01T18:35:56;101943.22;;;7.14;83.25
46944;BME280;32678;43.852;25.952;2023-03-01T18:40:53;101951.91;;;7.06;83.51
46944;BME280;32678;43.852;25.952;2023-03-01T18:45:55;101956.25;;;7.01;84.33
46944;BME280;32678;43.852;25.952;2023-03-01T18:50:53;101947.59;;;7.27;82.97
46944;BME280;32678;43.852;25.952;2023-03-01T18:55:51;101944.06;;;7.48;82.21
46944;BME280;32678;43.852;25.952;2023-03-01T19:00:48;101935.38;;;7.42;82.10
46944;BME280;32678;43.852;25.952;2023-03-01T19:05:46;101937.13;;;7.26;82.98
46944;BME280;32678;43.852;25.952;2023-03-01T19:10:42;101933.66;;;7.15;83.21
46944;BME280;32678;43.852;25.952;2023-03-01T19:15:39;101941.47;;;7.01;83.77
46944;BME280;32678;43.852;25.952;2023-03-01T19:20:36;101941.50;;;7.07;84.06
46944;BME280;32678;43.852;25.952;2023-03-01T19:25:44;101948.38;;;6.70;85.21
46944;BME280;32678;43.852;25.952;2023-03-01T19:30:41;101955.38;;;7.00;84.61
46944;BME280;32678;43.852;25.952;2023-03-01T19:40:57;101951.06;;;7.37;82.77
46944;BME280;32678;43.852;25.952;2023-03-01T19:45:54;101951.06;;;7.37;82.09
46944;BME280;32678;43.852;25.952;2023-03-01T19:50:52;101945.81;;;7.14;83.42
46944;BME280;32678;43.852;25.952;2023-03-01T19:55:49;101946.69;;;7.15;83.35
46944;BME280;32678;43.852;25.952;2023-03-01T20:00:48;101942.38;;;7.08;84.22
46944;BME280;32678;43.852;25.952;2023-03-01T20:05:52;101944.97;;;7.18;84.23
46944;BME280;32678;43.852;25.952;2023-03-01T20:10:49;101951.94;;;7.37;82.46
46944;BME280;32678;43.852;25.952;2023-03-01T20:15:46;101956.28;;;7.04;84.29
46944;BME280;32678;43.852;25.952;2023-03-01T20:20:47;101964.97;;;7.22;83.93
46944;BME280;32678;43.852;25.952;2023-03-01T20:25:44;101961.47;;;7.31;82.94
46944;BME280;32678;43.852;25.952;2023-03-01T20:30:44;101956.28;;;7.22;83.00
46944;BME280;32678;43.852;25.952;2023-03-01T20:35:42;101955.38;;;7.39;82.36
46944;BME280;32678;43.852;25.952;2023-03-01T20:40:41;101950.16;;;7.44;82.37
46944;BME280;32678;43.852;25.952;2023-03-01T20:45:37;101947.56;;;7.39;83.24
46944;BME280;32678;43.852;25.952;2023-03-01T20:50:34;101954.53;;;7.40;82.54
46944;BME280;32678;43.852;25.952;2023-03-01T20:55:35;101952.75;;;7.59;81.71
46944;BME280;32678;43.852;25.952;2023-03-01T21:00:33;101957.13;;;7.47;82.33
46944;BME280;32678;43.852;25.952;2023-03-01T21:05:30;101953.66;;;7.32;82.76
46944;BME280;32678;43.852;25.952;2023-03-01T21:10:28;101947.56;;;7.46;82.33
46944;BME280;32678;43.852;25.952;2023-03-01T21:15:25;101931.91;;;7.47;81.46
46944;BME280;32678;43.852;25.952;2023-03-01T21:20:25;101951.03;;;7.52;81.10
46944;BME280;32678;43.852;25.952;2023-03-01T21:25:23;101945.81;;;7.29;82.02
46944;BME280;32678;43.852;25.952;2023-03-01T21:30:30;101949.28;;;7.54;81.57
46944;BME280;32678;43.852;25.952;2023-03-01T21:35:27;101951.03;;;7.55;80.60
46944;BME280;32678;43.852;25.952;2023-03-01T21:40:24;101950.97;;;7.67;80.33
46944;BME280;32678;43.852;25.952;2023-03-01T21:45:21;101946.66;;;7.60;80.47
46944;BME280;32678;43.852;25.952;2023-03-01T21:50:18;101950.16;;;7.56;80.37
46944;BME280;32678;43.852;25.952;2023-03-01T21:55:18;101950.16;;;7.52;80.30
46944;BME280;32678;43.852;25.952;2023-03-01T22:00:15;101946.66;;;7.63;79.33
46944;BME280;32678;43.852;25.952;2023-03-01T22:05:13;101950.13;;;7.64;79.83
46944;BME280;32678;43.852;25.952;2023-03-01T22:10:10;101950.13;;;7.58;79.10
46944;BME280;32678;43.852;25.952;2023-03-01T22:15:08;101954.44;;;7.72;79.59
46944;BME280;32678;43.852;25.952;2023-03-01T22:20:06;101961.38;;;7.87;79.52
46944;BME280;32678;43.852;25.952;2023-03-01T22:25:03;101963.09;;;8.00;79.19
46944;BME280;32678;43.852;25.952;2023-03-01T22:30:00;101967.44;;;8.10;79.30
46944;BME280;32678;43.852;25.952;2023-03-01T22:34:58;101961.31;;;8.11;79.85
46944;BME280;32678;43.852;25.952;2023-03-01T22:39:55;101966.53;;;8.08;79.86
46944;BME280;32678;43.852;25.952;2023-03-01T22:44:52;101965.75;;;7.88;79.45
46944;BME280;32678;43.852;25.952;2023-03-01T22:49:53;101953.63;;;7.66;80.32
46944;BME280;32678;43.852;25.952;2023-03-01T22:54:53;101954.50;;;7.56;81.52
46944;BME280;32678;43.852;25.952;2023-03-01T22:59:50;101946.69;;;7.09;83.01
46944;BME280;32678;43.852;25.952;2023-03-01T23:04:46;101948.44;;;7.14;83.19
46944;BME280;32678;43.852;25.952;2023-03-01T23:09:43;101945.81;;;7.14;83.84
46944;BME280;32678;43.852;25.952;2023-03-01T23:14:40;101951.91;;;7.19;84.22
46944;BME280;32678;43.852;25.952;2023-03-01T23:19:37;101945.81;;;6.96;85.03
46944;BME280;32678;43.852;25.952;2023-03-01T23:24:34;101945.84;;;6.97;85.84
46944;BME280;32678;43.852;25.952;2023-03-01T23:29:31;101944.97;;;6.92;85.64
46944;BME280;32678;43.852;25.952;2023-03-01T23:34:28;101963.19;;;6.77;86.39
46944;BME280;32678;43.852;25.952;2023-03-01T23:39:25;101957.13;;;7.01;85.72
46944;BME280;32678;43.852;25.952;2023-03-01T23:44:22;101957.13;;;7.01;85.38
46944;BME280;32678;43.852;25.952;2023-03-01T23:49:19;101952.78;;;6.95;85.79
46944;BME280;32678;43.852;25.952;2023-03-01T23:54:18;101960.59;;;6.83;86.13
46944;BME280;32678;43.852;25.952;2023-03-01T23:59:16;101955.38;;;6.85;86.40
